Time;durP1;ratioP1;P1;durP2;ratioP2;P2;SDS_P1;SDS_P2;PMS_P1;PMS_P2;Temp;Humidity;BMP_temperature;BMP_pressure;BME280_temperature;BME280_humidity;BME280_pressure;Samples;Min_cycle;Max_cycle;Signal;HPM_P1;HPM_P2
2022/04/03 00:00:56;;;;;;;10.15;4.22;;;0.90;99.90;;;;;;4990899;28;20042;-82
2022/04/03 00:03:22;;;;;;;11.25;4.25;;;0.90;99.90;;;;;;5004935;28;20044;-83
2022/04/03 00:05:48;;;;;;;9.93;4.43;;;0.90;99.90;;;;;;4994039;28;20041;-82
2022/04/03 00:08:13;;;;;;;9.48;3.83;;;0.90;99.90;;;;;;5003432;28;20068;-83
2022/04/03 00:10:40;;;;;;;9.45;3.67;;;0.80;99.90;;;;;;5012267;28;20069;-82
2022/04/03 00:13:07;;;;;;;10.10;3.60;;;0.80;99.90;;;;;;4979155;28;20053;-83
2022/04/03 00:15:36;;;;;;;8.60;3.80;;;0.80;99.90;;;;;;5010726;28;20037;-82
2022/04/03 00:18:01;;;;;;;9.20;4.00;;;0.80;99.90;;;;;;4991004;28;20612;-82
2022/04/03 00:20:27;;;;;;;10.23;3.63;;;2.70;99.90;;;;;;4976674;28;20038;-81
2022/04/03 00:22:53;;;;;;;10.73;3.70;;;1.90;99.90;;;;;;5005437;28;20562;-82
2022/04/03 00:25:19;;;;;;;9.05;3.53;;;0.70;99.90;;;;;;4995311;28;20045;-83
2022/04/03 00:27:48;;;;;;;12.82;3.90;;;2.10;99.90;;;;;;4993315;28;20107;-82
2022/04/03 00:30:14;;;;;;;9.60;3.72;;;1.20;99.90;;;;;;4971079;28;20049;-83
2022/04/03 00:32:40;;;;;;;10.65;3.63;;;0.60;99.90;;;;;;5008038;28;20045;-83
2022/04/03 00:35:07;;;;;;;9.75;3.70;;;0.60;99.90;;;;;;4969994;28;20189;-82
2022/04/03 00:37:33;;;;;;;9.00;3.50;;;0.60;99.90;;;;;;4991366;28;20075;-83
2022/04/03 00:39:59;;;;;;;10.07;3.58;;;0.60;99.90;;;;;;4960678;28;20787;-83
2022/04/03 00:42:26;;;;;;;9.35;3.75;;;0.50;99.90;;;;;;4988665;28;20037;-82
2022/04/03 00:44:52;;;;;;;10.07;4.15;;;0.30;99.90;;;;;;4980575;28;20136;-83
2022/04/03 00:47:20;;;;;;;8.93;3.92;;;0.60;99.90;;;;;;4980739;28;20120;-83
2022/04/03 00:49:46;;;;;;;9.13;4.10;;;2.40;99.90;;;;;;4996734;28;20045;-83
2022/04/03 00:52:12;;;;;;;11.75;4.10;;;0.50;99.90;;;;;;4995344;28;20041;-82
2022/04/03 00:54:38;;;;;;;10.00;3.92;;;0.50;99.90;;;;;;4996743;28;20045;-83
2022/04/03 00:57:06;;;;;;;9.43;4.25;;;1.30;99.90;;;;;;4980856;28;20041;-82
2022/04/03 00:59:33;;;;;;;8.82;3.75;;;0.40;99.90;;;;;;4983370;28;20283;-83
2022/04/03 01:01:59;;;;;;;9.32;4.18;;;1.40;99.90;;;;;;5004784;28;20037;-82
2022/04/03 01:04:25;;;;;;;9.93;4.00;;;1.00;99.90;;;;;;4977962;28;20095;-82
2022/04/03 01:06:50;;;;;;;9.48;3.85;;;0.40;99.90;;;;;;4997845;28;20094;-82
2022/04/03 01:09:16;;;;;;;10.75;3.85;;;1.40;99.90;;;;;;4991010;28;20037;-83
2022/04/03 01:11:44;;;;;;;8.73;3.80;;;0.40;99.90;;;;;;5014063;28;20049;-83
2022/04/03 01:14:10;;;;;;;10.52;3.58;;;1.90;99.90;;;;;;4982807;28;20124;-83
2022/04/03 01:16:37;;;;;;;9.75;3.80;;;0.30;99.90;;;;;;4993898;28;20108;-83
2022/04/03 01:19:03;;;;;;;12.32;3.70;;;0.30;99.90;;;;;;4965160;28;20171;-83
2022/04/03 01:21:29;;;;;;;9.20;3.40;;;1.50;99.90;;;;;;4996732;28;20080;-83
2022/04/03 01:23:55;;;;;;;8.68;3.53;;;0.70;99.90;;;;;;4997576;28;20130;-82
2022/04/03 01:26:24;;;;;;;9.40;3.72;;;0.40;99.90;;;;;;5016625;28;20070;-83
2022/04/03 01:28:51;;;;;;;9.13;3.30;;;1.60;99.90;;;;;;5016313;28;20052;-83
2022/04/03 01:31:17;;;;;;;9.45;3.90;;;1.30;99.90;;;;;;4997338;28;20041;-83
2022/04/03 01:33:43;;;;;;;10.88;3.90;;;0.30;99.90;;;;;;4967827;28;20111;-83
2022/04/03 01:36:09;;;;;;;8.50;3.67;;;0.30;99.90;;;;;;4996145;28;20052;-83
2022/04/03 01:38:35;;;;;;;8.65;3.40;;;0.30;99.90;;;;;;4980167;28;20041;-83
2022/04/03 01:41:00;;;;;;;9.55;3.53;;;0.30;99.90;;;;;;4996373;28;20117;-81
2022/04/03 01:43:26;;;;;;;9.10;3.63;;;1.60;99.90;;;;;;4985219;28;20541;-82
2022/04/03 01:45:52;;;;;;;8.85;3.65;;;1.20;99.90;;;;;;4996582;28;20400;-82
2022/04/03 01:48:18;;;;;;;7.85;3.30;;;0.40;99.90;;;;;;4982531;28;20040;-81
2022/04/03 01:50:44;;;;;;;9.85;3.88;;;0.40;99.90;;;;;;4973795;28;20448;-83
2022/04/03 01:53:09;;;;;;;9.57;3.38;;;1.50;99.90;;;;;;4993592;28;20046;-82
2022/04/03 01:55:35;;;;;;;8.63;3.38;;;1.30;99.90;;;;;;4979663;28;20088;-82
2022/04/03 01:58:07;;;;;;;7.68;3.08;;;0.50;99.90;;;;;;5013090;28;20041;-83
2022/04/03 02:00:33;;;;;;;9.32;3.28;;;1.20;99.90;;;;;;5003877;28;20045;-82
2022/04/03 02:02:59;;;;;;;8.63;3.13;;;2.00;99.90;;;;;;4981169;28;20068;-82
2022/04/03 02:05:25;;;;;;;9.18;3.55;;;0.50;99.90;;;;;;4979315;28;20462;-83
2022/04/03 02:07:51;;;;;;;9.18;3.60;;;0.50;99.90;;;;;;4997878;28;20037;-83
2022/04/03 02:10:17;;;;;;;9.85;3.33;;;1.80;99.90;;;;;;4998084;28;20045;-82
2022/04/03 02:12:43;;;;;;;8.25;3.30;;;0.60;99.90;;;;;;5000509;28;20087;-83
2022/04/03 02:15:11;;;;;;;8.45;3.30;;;2.40;99.90;;;;;;5015272;28;20076;-83
2022/04/03 02:17:40;;;;;;;8.13;3.00;;;0.70;99.90;;;;;;5016106;28;20075;-82
2022/04/03 02:20:09;;;;;;;8.18;3.05;;;0.80;99.90;;;;;;5029667;28;20505;-82
2022/04/03 02:22:35;;;;;;;7.75;3.00;;;0.80;99.90;;;;;;4995696;28;20075;-83
2022/04/03 02:25:00;;;;;;;8.05;3.10;;;0.80;99.90;;;;;;4996568;28;20494;-82
2022/04/03 02:27:26;;;;;;;8.35;3.33;;;2.40;99.90;;;;;;4996835;28;20041;-83
2022/04/03 02:29:52;;;;;;;8.82;2.70;;;0.90;99.90;;;;;;5021377;28;20043;-83
2022/04/03 02:32:17;;;;;;;8.50;2.90;;;2.10;99.90;;;;;;5026194;28;20041;-83
2022/04/03 02:34:43;;;;;;;8.32;3.10;;;2.30;99.90;;;;;;5000969;28;20037;-83
2022/04/03 02:37:09;;;;;;;9.30;3.25;;;1.60;99.90;;;;;;5029023;28;20116;-83
2022/04/03 02:39:35;;;;;;;9.20;2.90;;;1.10;99.90;;;;;;5031228;28;20036;-82
2022/04/03 02:42:01;;;;;;;8.15;3.20;;;1.10;99.90;;;;;;4996120;28;20045;-82
2022/04/03 02:44:26;;;;;;;8.93;3.05;;;1.10;99.90;;;;;;5006123;28;20040;-83
2022/04/03 02:46:52;;;;;;;8.48;3.35;;;2.40;99.90;;;;;;5031350;28;20036;-82
2022/04/03 02:49:18;;;;;;;8.07;3.15;;;1.20;99.90;;;;;;4999675;28;20045;-82
2022/04/03 02:51:43;;;;;;;9.10;3.20;;;1.20;99.90;;;;;;4984547;28;20261;-83
2022/04/03 02:54:09;;;;;;;9.35;3.40;;;1.20;99.90;;;;;;5047665;28;20456;-82
2022/04/03 02:56:35;;;;;;;8.00;3.10;;;1.20;99.90;;;;;;5038790;28;20099;-82
2022/04/03 02:59:00;;;;;;;7.82;3.00;;;2.30;99.90;;;;;;5009143;28;20108;-83
2022/04/03 03:01:26;;;;;;;7.30;2.53;;;2.30;99.90;;;;;;4990217;28;20048;-83
2022/04/03 03:03:52;;;;;;;6.13;2.25;;;2.70;99.90;;;;;;4980349;28;20036;-83
2022/04/03 03:06:19;;;;;;;6.90;2.20;;;1.20;99.90;;;;;;5005848;28;20029;-83
2022/04/03 03:08:45;;;;;;;5.05;2.00;;;1.20;99.90;;;;;;5019813;28;20094;-83
2022/04/03 03:11:10;;;;;;;5.93;2.00;;;2.50;99.90;;;;;;5016601;28;20049;-83
2022/04/03 03:13:36;;;;;;;6.25;1.65;;;1.90;99.90;;;;;;5003246;28;20076;-84
2022/04/03 03:16:02;;;;;;;5.55;1.90;;;1.20;99.90;;;;;;4984757;28;20052;-83
2022/04/03 03:18:28;;;;;;;3.95;1.52;;;1.20;99.90;;;;;;5013409;28;20068;-83
2022/04/03 03:20:54;;;;;;;7.45;1.95;;;1.30;99.90;;;;;;5012329;28;20507;-84
2022/04/03 03:23:20;;;;;;;4.88;1.50;;;2.00;99.90;;;;;;4987160;28;20076;-85
2022/04/03 03:25:45;;;;;;;2.67;1.33;;;1.40;99.90;;;;;;5040095;28;20044;-84
2022/04/03 03:28:12;;;;;;;6.28;1.52;;;1.90;99.90;;;;;;5016784;28;20044;-85
2022/04/03 03:30:38;;;;;;;4.57;1.30;;;1.50;99.90;;;;;;4985228;28;20044;-85
2022/04/03 03:33:05;;;;;;;3.33;1.40;;;2.80;99.90;;;;;;5022478;28;20127;-85
2022/04/03 03:35:31;;;;;;;6.68;1.95;;;1.80;99.90;;;;;;4988427;28;20119;-85
2022/04/03 03:37:57;;;;;;;2.60;1.40;;;1.60;99.90;;;;;;4998523;28;20132;-84
2022/04/03 03:40:23;;;;;;;4.80;1.60;;;1.50;99.90;;;;;;4976489;28;20469;-86
2022/04/03 03:42:48;;;;;;;5.03;1.65;;;2.50;99.90;;;;;;5015553;28;20121;-84
2022/04/03 03:45:15;;;;;;;4.63;1.60;;;2.50;99.90;;;;;;4982113;28;20041;-85
2022/04/03 03:47:44;;;;;;;4.35;1.42;;;2.10;99.90;;;;;;5023507;28;20040;-85
2022/04/03 03:50:11;;;;;;;4.90;1.50;;;2.50;99.90;;;;;;5019984;28;20059;-85
2022/04/03 03:52:36;;;;;;;4.15;1.52;;;1.90;99.90;;;;;;5040301;28;20033;-85
2022/04/03 03:55:02;;;;;;;3.85;1.50;;;1.50;99.90;;;;;;4997833;28;20098;-84
2022/04/03 03:57:28;;;;;;;3.78;1.50;;;1.60;99.90;;;;;;5030589;28;20386;-84
2022/04/03 03:59:53;;;;;;;5.93;1.95;;;1.50;99.90;;;;;;5005821;28;20099;-84
2022/04/03 04:02:19;;;;;;;5.25;1.70;;;1.60;99.90;;;;;;5035033;28;20037;-84
2022/04/03 04:04:45;;;;;;;6.80;1.90;;;1.50;99.90;;;;;;4999924;28;20163;-85
2022/04/03 04:07:11;;;;;;;4.72;1.67;;;2.70;99.90;;;;;;5005326;28;20041;-84
2022/04/03 04:09:37;;;;;;;4.13;1.58;;;1.60;99.90;;;;;;4983377;28;20412;-85
2022/04/03 04:12:04;;;;;;;7.72;1.70;;;1.50;99.90;;;;;;4988849;28;20057;-85
2022/04/03 04:14:30;;;;;;;5.45;1.70;;;1.50;99.90;;;;;;4981720;28;20518;-86
2022/04/03 04:16:55;;;;;;;4.65;1.60;;;2.80;99.90;;;;;;5000517;28;20026;-85
2022/04/03 04:19:21;;;;;;;5.55;1.80;;;1.50;99.90;;;;;;4988698;28;20101;-84
2022/04/03 04:21:47;;;;;;;7.35;1.90;;;2.60;99.90;;;;;;4996146;28;20048;-84
2022/04/03 04:24:12;;;;;;;5.65;1.80;;;1.50;99.90;;;;;;4984875;28;20275;-84
2022/04/03 04:26:38;;;;;;;5.70;1.90;;;0.50;99.90;;;;;;4984213;28;20045;-85
2022/04/03 04:29:04;;;;;;;6.60;1.90;;;1.50;99.90;;;;;;5000989;28;20064;-85
2022/04/03 04:31:30;;;;;;;6.70;1.90;;;1.50;99.90;;;;;;4984383;28;20065;-85
2022/04/03 04:33:55;;;;;;;5.95;1.90;;;1.50;99.90;;;;;;4992190;28;20507;-84
2022/04/03 04:36:21;;;;;;;5.38;1.83;;;1.50;99.90;;;;;;4982690;28;20064;-85
2022/04/03 04:38:47;;;;;;;6.57;1.98;;;1.50;99.90;;;;;;4981120;28;20541;-85
2022/04/03 04:41:13;;;;;;;6.18;2.20;;;1.50;99.90;;;;;;4984237;28;20045;-85
2022/04/03 04:43:40;;;;;;;6.93;2.30;;;2.70;99.90;;;;;;5005672;28;20042;-85
2022/04/03 04:46:05;;;;;;;6.47;2.28;;;1.40;99.90;;;;;;4987117;28;20044;-84
2022/04/03 04:48:32;;;;;;;7.72;2.45;;;1.50;99.90;;;;;;4984605;28;20046;-85
2022/04/03 04:50:58;;;;;;;8.05;2.50;;;1.40;99.90;;;;;;4984741;28;20476;-85
2022/04/03 04:53:23;;;;;;;9.55;2.58;;;1.50;99.90;;;;;;5014997;28;20128;-84
2022/04/03 04:55:49;;;;;;;7.07;2.58;;;2.60;99.90;;;;;;5011513;28;20045;-84
2022/04/03 04:58:15;;;;;;;7.40;2.30;;;1.40;99.90;;;;;;4983022;28;20528;-84
2022/04/03 05:00:41;;;;;;;7.35;2.40;;;2.50;99.90;;;;;;4999372;28;20635;-84
2022/04/03 05:03:07;;;;;;;7.72;2.45;;;1.40;99.90;;;;;;4990923;28;20350;-85
2022/04/03 05:05:33;;;;;;;8.85;2.55;;;1.40;99.90;;;;;;4978506;28;20034;-85
2022/04/03 05:08:00;;;;;;;7.40;2.50;;;1.60;99.90;;;;;;4984323;28;20052;-85
2022/04/03 05:10:26;;;;;;;8.05;2.47;;;1.40;99.90;;;;;;4998948;28;20052;-85
2022/04/03 05:12:54;;;;;;;7.43;2.85;;;1.30;99.90;;;;;;4979055;28;20146;-85
2022/04/03 05:15:20;;;;;;;6.47;2.40;;;1.30;99.90;;;;;;5018021;28;20059;-84
2022/04/03 05:17:45;;;;;;;6.85;2.70;;;1.30;99.90;;;;;;5001175;28;20034;-84
2022/04/03 05:20:13;;;;;;;8.13;2.90;;;1.30;99.90;;;;;;4996077;28;20091;-84
2022/04/03 05:22:43;;;;;;;7.53;2.65;;;1.30;99.90;;;;;;5002401;28;20037;-84
2022/04/03 05:25:11;;;;;;;7.95;2.90;;;1.30;99.90;;;;;;5018864;28;20119;-84
2022/04/03 05:27:41;;;;;;;8.70;2.92;;;1.30;99.90;;;;;;5016180;28;20454;-84
2022/04/03 05:30:08;;;;;;;7.90;2.60;;;2.00;99.90;;;;;;5015330;28;20045;-84
2022/04/03 05:32:36;;;;;;;10.88;2.92;;;1.40;99.90;;;;;;5016222;28;20045;-85
2022/04/03 05:35:03;;;;;;;8.23;2.90;;;1.40;99.90;;;;;;5017108;28;20040;-84
2022/04/03 05:37:29;;;;;;;8.93;3.00;;;1.40;99.90;;;;;;5015714;28;20096;-84
2022/04/03 05:39:55;;;;;;;7.57;2.70;;;1.50;99.90;;;;;;5010839;28;20133;-84
2022/04/03 05:42:22;;;;;;;10.20;2.75;;;1.60;99.90;;;;;;4998418;28;20037;-85
2022/04/03 05:44:47;;;;;;;8.70;2.33;;;1.70;99.90;;;;;;5035636;28;20064;-84
2022/04/03 05:47:17;;;;;;;6.95;2.13;;;1.70;99.90;;;;;;5019241;28;20536;-84
2022/04/03 05:49:44;;;;;;;8.65;2.30;;;3.70;99.90;;;;;;5003684;28;20103;-85
2022/04/03 05:52:10;;;;;;;8.23;2.17;;;3.50;99.90;;;;;;5033605;28;20063;-85
2022/04/03 05:54:35;;;;;;;6.38;2.00;;;1.90;99.90;;;;;;5028217;28;20041;-84
2022/04/03 05:57:01;;;;;;;6.47;2.00;;;2.40;99.90;;;;;;5015123;28;20478;-85
2022/04/03 05:59:27;;;;;;;6.93;2.00;;;2.00;99.90;;;;;;5036156;28;20033;-85
2022/04/03 06:01:53;;;;;;;5.88;1.90;;;2.00;99.90;;;;;;5018478;28;20060;-85
2022/04/03 06:04:18;;;;;;;8.27;2.67;;;2.10;99.90;;;;;;4988131;28;20489;-85
2022/04/03 06:06:44;;;;;;;8.48;2.70;;;2.10;99.90;;;;;;5022651;28;20071;-85
2022/04/03 06:09:10;;;;;;;9.32;2.95;;;2.10;99.90;;;;;;5000236;28;20034;-85
2022/04/03 06:11:35;;;;;;;8.40;3.10;;;2.10;99.90;;;;;;5015152;28;20041;-85
2022/04/03 06:14:01;;;;;;;7.05;2.80;;;3.50;99.90;;;;;;5008090;28;20119;-85
2022/04/03 06:16:27;;;;;;;8.07;3.00;;;2.10;99.90;;;;;;5017713;28;20045;-85
2022/04/03 06:18:53;;;;;;;7.80;2.75;;;3.90;99.90;;;;;;4989041;28;20481;-85
2022/04/03 06:21:20;;;;;;;8.68;3.20;;;2.30;99.90;;;;;;5012316;28;20036;-84
2022/04/03 06:23:46;;;;;;;8.30;2.70;;;2.30;99.90;;;;;;5032976;28;20525;-84
2022/04/03 06:26:12;;;;;;;8.88;3.17;;;3.80;99.90;;;;;;5002683;28;20094;-85
2022/04/03 06:28:37;;;;;;;8.50;3.00;;;2.30;99.90;;;;;;5032272;28;20037;-85
2022/04/03 06:31:04;;;;;;;7.78;2.97;;;4.20;99.90;;;;;;5003513;28;20417;-85
2022/04/03 06:33:30;;;;;;;9.20;3.20;;;2.40;99.90;;;;;;4979425;28;20037;-84
2022/04/03 06:35:56;;;;;;;6.97;2.50;;;2.50;99.90;;;;;;5011062;28;20059;-85
2022/04/03 06:38:23;;;;;;;10.07;3.42;;;2.50;99.90;;;;;;5017053;28;20128;-85
2022/04/03 06:40:54;;;;;;;8.00;3.00;;;2.90;99.90;;;;;;5025864;28;20041;-86
2022/04/03 06:43:26;;;;;;;9.90;3.10;;;3.10;99.90;;;;;;5020142;28;20486;-85
2022/04/03 06:45:53;;;;;;;10.07;3.30;;;2.40;99.90;;;;;;5014483;28;20506;-85
2022/04/03 06:48:19;;;;;;;8.77;3.20;;;2.70;99.90;;;;;;5030519;28;20037;-85
2022/04/03 06:50:45;;;;;;;10.32;3.30;;;2.60;99.90;;;;;;5004068;28;20036;-86
2022/04/03 06:53:11;;;;;;;9.65;3.40;;;2.00;99.90;;;;;;5009943;28;20051;-85
2022/04/03 06:55:37;;;;;;;8.57;3.08;;;2.60;99.90;;;;;;4998450;28;20187;-83
2022/04/03 06:58:03;;;;;;;8.63;2.97;;;2.60;99.90;;;;;;5032827;28;20544;-84
2022/04/03 07:00:29;;;;;;;9.45;3.30;;;2.70;99.90;;;;;;4998384;28;20040;-84
2022/04/03 07:02:55;;;;;;;10.52;2.90;;;3.00;99.90;;;;;;5033577;28;20037;-83
2022/04/03 07:05:21;;;;;;;8.27;2.80;;;3.00;99.90;;;;;;4993808;28;20316;-85
2022/04/03 07:07:46;;;;;;;10.48;2.85;;;3.20;99.90;;;;;;4996327;28;20024;-85
2022/04/03 07:10:13;;;;;;;8.65;2.53;;;3.30;99.90;;;;;;4995196;28;20041;-85
2022/04/03 07:12:39;;;;;;;7.00;2.17;;;5.00;99.90;;;;;;5024842;28;20107;-85
2022/04/03 07:15:08;;;;;;;6.82;2.28;;;4.90;99.90;;;;;;5015698;28;20041;-85
2022/04/03 07:17:35;;;;;;;6.20;2.20;;;3.80;99.90;;;;;;5015772;28;20044;-85
2022/04/03 07:20:00;;;;;;;5.32;1.80;;;4.00;99.90;;;;;;4995553;28;20063;-85
2022/04/03 07:22:26;;;;;;;7.00;2.20;;;5.00;99.90;;;;;;5028829;28;20112;-84
2022/04/03 07:24:52;;;;;;;8.45;2.10;;;4.10;99.90;;;;;;4987747;28;20029;-85
2022/04/03 07:27:17;;;;;;;7.15;2.45;;;6.20;99.90;;;;;;4998421;28;20485;-85
2022/04/03 07:29:43;;;;;;;4.85;1.80;;;4.50;99.90;;;;;;5013162;28;20055;-87
2022/04/03 07:32:09;;;;;;;7.97;1.80;;;5.60;99.90;;;;;;5002420;28;20060;-87
2022/04/03 07:34:35;;;;;;;8.30;2.15;;;4.70;99.90;;;;;;5003125;28;20116;-84
2022/04/03 07:37:00;;;;;;;7.00;1.98;;;4.80;99.90;;;;;;5017251;28;20033;-80
2022/04/03 07:39:26;;;;;;;6.22;1.80;;;4.80;99.90;;;;;;5005538;28;20036;-82
2022/04/03 07:41:52;;;;;;;5.97;1.60;;;6.10;99.90;;;;;;4993808;28;20175;-83
2022/04/03 07:44:18;;;;;;;7.45;2.10;;;5.40;99.90;;;;;;4997440;28;20761;-83
2022/04/03 07:46:44;;;;;;;5.15;1.70;;;5.20;99.90;;;;;;4978057;28;20033;-83
2022/04/03 07:49:10;;;;;;;4.90;1.90;;;5.10;99.90;;;;;;5031667;28;20037;-83
2022/04/03 07:51:36;;;;;;;5.30;1.80;;;5.30;99.90;;;;;;5033223;28;20521;-83
2022/04/03 07:54:03;;;;;;;6.88;1.83;;;5.30;99.90;;;;;;5041738;28;20032;-83
2022/04/03 07:56:30;;;;;;;6.18;1.80;;;5.40;99.90;;;;;;5012068;28;20093;-83
2022/04/03 07:58:56;;;;;;;4.15;1.60;;;6.40;99.90;;;;;;4995129;28;20042;-82
2022/04/03 08:01:22;;;;;;;7.00;1.80;;;5.50;99.90;;;;;;5035606;28;20070;-83
2022/04/03 08:03:47;;;;;;;6.38;2.10;;;5.60;99.90;;;;;;5029892;28;20558;-83
2022/04/03 08:06:13;;;;;;;6.50;1.67;;;5.70;99.90;;;;;;5028921;28;20033;-83
2022/04/03 08:08:39;;;;;;;5.38;1.60;;;5.70;99.90;;;;;;5007570;28;20033;-84
2022/04/03 08:11:05;;;;;;;5.80;1.48;;;5.80;99.90;;;;;;4997378;28;20041;-83
2022/04/03 08:13:30;;;;;;;6.20;1.65;;;5.90;99.90;;;;;;4995727;28;20057;-83
2022/04/03 08:15:56;;;;;;;6.18;1.60;;;6.00;99.90;;;;;;4996121;28;20049;-82
2022/04/03 08:18:22;;;;;;;3.58;1.38;;;6.10;99.90;;;;;;5011204;28;20049;-83
2022/04/03 08:20:48;;;;;;;5.90;1.58;;;7.50;99.90;;;;;;4979688;28;20206;-83
2022/04/03 08:23:14;;;;;;;3.92;1.33;;;6.40;99.90;;;;;;4994872;28;20295;-82
2022/04/03 08:25:39;;;;;;;2.92;1.30;;;7.90;99.90;;;;;;4979483;28;20033;-83
2022/04/03 08:28:07;;;;;;;3.65;1.40;;;6.60;99.90;;;;;;4995592;28;20037;-84
2022/04/03 08:30:36;;;;;;;6.85;1.52;;;7.30;99.90;;;;;;4994294;28;20037;-82
2022/04/03 08:33:04;;;;;;;4.43;1.60;;;7.10;99.90;;;;;;4994425;28;20045;-83
2022/04/03 08:35:32;;;;;;;7.82;1.80;;;8.30;99.90;;;;;;4979980;28;20499;-84
2022/04/03 08:38:00;;;;;;;8.02;1.92;;;8.50;99.90;;;;;;4994538;28;20410;-84
2022/04/03 08:40:26;;;;;;;6.25;1.60;;;7.80;99.90;;;;;;5002369;28;20063;-83
2022/04/03 08:42:54;;;;;;;5.63;1.70;;;6.80;99.90;;;;;;4995791;28;20117;-83
2022/04/03 08:45:21;;;;;;;6.10;1.60;;;6.90;99.90;;;;;;5019887;28;20061;-81
2022/04/03 08:47:55;;;;;;;6.90;1.70;;;6.40;99.90;;;;;;4992650;28;20041;-83
2022/04/03 08:50:30;;;;;;;4.47;1.58;;;6.20;99.90;;;;;;4980851;28;20034;-83
2022/04/03 08:53:02;;;;;;;4.47;1.50;;;6.00;99.90;;;;;;5005362;28;20034;-83
2022/04/03 08:55:28;;;;;;;7.50;1.70;;;5.90;99.90;;;;;;4987583;28;20410;-83
2022/04/03 08:57:54;;;;;;;5.28;1.55;;;5.90;99.90;;;;;;4976674;28;20278;-84
2022/04/03 09:00:21;;;;;;;6.75;1.60;;;6.20;99.90;;;;;;4961745;28;20054;-85
2022/04/03 09:02:47;;;;;;;4.00;1.52;;;6.40;99.90;;;;;;5014605;28;20041;-83
2022/04/03 09:05:14;;;;;;;6.05;1.60;;;6.80;99.90;;;;;;5017515;28;20037;-83
2022/04/03 09:07:41;;;;;;;7.00;1.60;;;7.70;99.90;;;;;;4984831;28;20041;-83
2022/04/03 09:10:09;;;;;;;5.25;1.50;;;7.40;99.90;;;;;;5013409;28;20049;-84
2022/04/03 09:12:49;;;;;;;5.47;1.50;;;6.80;99.90;;;;;;5009843;28;20115;-84
2022/04/03 09:15:20;;;;;;;5.22;1.52;;;7.60;99.90;;;;;;5016974;28;20037;-83
2022/04/03 09:17:52;;;;;;;4.70;1.30;;;7.60;99.90;;;;;;5034057;28;20040;-83
2022/04/03 09:20:20;;;;;;;4.00;1.20;;;7.60;99.90;;;;;;5037462;28;20536;-82
2022/04/03 09:22:50;;;;;;;5.53;1.50;;;7.50;99.90;;;;;;5032067;28;20462;-83
2022/04/03 09:25:22;;;;;;;5.18;1.50;;;7.30;99.90;;;;;;5033889;28;20033;-83
2022/04/03 09:27:51;;;;;;;2.78;1.05;;;7.00;99.90;;;;;;5034224;28;20036;-83
2022/04/03 09:30:20;;;;;;;5.20;1.63;;;6.80;99.90;;;;;;5034125;28;20041;-83
2022/04/03 09:32:57;;;;;;;6.10;1.20;;;7.30;99.90;;;;;;5040026;28;20037;-84
2022/04/03 09:35:28;;;;;;;4.35;1.45;;;6.80;99.90;;;;;;4994163;28;20502;-83
2022/04/03 09:38:09;;;;;;;5.65;1.30;;;7.10;99.90;;;;;;5031484;28;20033;-83
2022/04/03 09:40:38;;;;;;;4.82;1.30;;;7.30;99.90;;;;;;5018824;28;20585;-82
2022/04/03 09:43:27;;;;;;;3.55;1.10;;;7.60;99.90;;;;;;5016774;28;20280;-82
2022/04/03 09:45:57;;;;;;;5.35;1.42;;;7.60;99.90;;;;;;5022845;28;20475;-83
2022/04/03 09:48:36;;;;;;;2.75;0.98;;;8.60;99.90;;;;;;5017360;28;20156;-83
2022/04/03 09:51:06;;;;;;;2.08;1.10;;;7.70;99.90;;;;;;5023055;28;20072;-84
2022/04/03 09:53:48;;;;;;;5.53;1.60;;;7.80;99.90;;;;;;5013872;28;20036;-83
2022/04/03 09:56:14;;;;;;;6.60;1.38;;;7.50;99.90;;;;;;5024989;28;20493;-83
2022/04/03 09:58:49;;;;;;;7.18;1.50;;;8.40;99.90;;;;;;5008540;28;20057;-83
2022/04/03 10:01:28;;;;;;;5.05;1.27;;;7.90;99.90;;;;;;5014935;28;20045;-84
2022/04/03 10:03:55;;;;;;;3.33;1.20;;;8.00;99.90;;;;;;5011880;28;20043;-83
2022/04/03 10:06:21;;;;;;;3.30;0.88;;;8.00;99.90;;;;;;5019235;28;20051;-83
2022/04/03 10:08:48;;;;;;;3.70;1.38;;;9.10;99.90;;;;;;5003926;28;20125;-82
2022/04/03 10:11:17;;;;;;;4.18;1.15;;;8.30;99.90;;;;;;4992024;28;20037;-83
2022/04/03 10:13:44;;;;;;;8.07;1.58;;;8.70;99.90;;;;;;5015680;28;20062;-84
2022/04/03 10:16:11;;;;;;;6.15;1.10;;;8.30;99.90;;;;;;5030444;28;20060;-83
2022/04/03 10:18:39;;;;;;;3.75;1.23;;;8.60;99.90;;;;;;4996903;28;20044;-83
2022/04/03 10:21:11;;;;;;;5.20;1.17;;;8.50;99.90;;;;;;5011316;28;20064;-82
2022/04/03 10:23:41;;;;;;;4.40;0.93;;;8.50;99.90;;;;;;5026165;28;20037;-83
2022/04/03 10:26:08;;;;;;;3.78;1.10;;;8.30;99.90;;;;;;5037404;28;20048;-83
2022/04/03 10:28:35;;;;;;;4.88;1.40;;;8.30;99.90;;;;;;5015134;28;20045;-83
2022/04/03 10:31:07;;;;;;;5.03;1.52;;;7.80;99.90;;;;;;5033263;28;20045;-83
2022/04/03 10:33:43;;;;;;;5.25;1.33;;;7.70;99.90;;;;;;5016667;28;20098;-83
2022/04/03 10:36:11;;;;;;;5.75;1.40;;;7.90;99.90;;;;;;5042540;28;20084;-83
2022/04/03 10:38:55;;;;;;;4.50;1.23;;;8.00;99.90;;;;;;5009496;28;20048;-83
2022/04/03 10:41:27;;;;;;;3.58;1.13;;;8.50;99.90;;;;;;5026515;28;20418;-84
2022/04/03 10:44:11;;;;;;;6.28;1.48;;;8.10;99.90;;;;;;5031896;28;20033;-82
2022/04/03 10:47:05;;;;;;;4.38;1.40;;;8.20;99.90;;;;;;5021433;28;20037;-83
2022/04/03 10:49:40;;;;;;;4.00;1.48;;;8.60;99.90;;;;;;5028518;28;20068;-83
2022/04/03 10:52:21;;;;;;;3.47;1.33;;;8.80;99.90;;;;;;5032303;28;20043;-83
2022/04/03 10:54:54;;;;;;;5.50;1.40;;;9.10;99.90;;;;;;5029251;28;20036;-82
2022/04/03 10:57:45;;;;;;;6.35;1.50;;;9.20;99.90;;;;;;5015970;28;20033;-82
2022/04/03 11:00:16;;;;;;;4.25;1.25;;;8.80;99.90;;;;;;5037524;28;20402;-83
2022/04/03 11:02:42;;;;;;;3.55;1.63;;;8.50;99.90;;;;;;5030928;28;20048;-83
2022/04/03 11:05:32;;;;;;;5.10;1.40;;;8.10;99.90;;;;;;5014693;28;20037;-83
2022/04/03 11:08:00;;;;;;;2.75;1.10;;;7.70;99.90;;;;;;5019565;28;20486;-82
2022/04/03 11:11:03;;;;;;;4.65;1.40;;;8.00;99.90;;;;;;5027919;28;20110;-84
2022/04/03 11:13:32;;;;;;;2.55;1.13;;;6.60;99.90;;;;;;5034953;28;20110;-83
2022/04/03 11:16:09;;;;;;;3.65;1.20;;;6.70;99.90;;;;;;5037401;28;20041;-83
2022/04/03 11:18:49;;;;;;;2.42;1.10;;;6.20;99.90;;;;;;5033056;28;20107;-83
2022/04/03 11:21:17;;;;;;;3.50;1.13;;;6.50;99.90;;;;;;5014299;28;20047;-83
2022/04/03 11:24:05;;;;;;;4.85;1.30;;;7.00;99.90;;;;;;5017063;28;20045;-83
2022/04/03 11:26:32;;;;;;;3.95;1.20;;;6.40;99.90;;;;;;5027800;28;20049;-83
2022/04/03 11:28:58;;;;;;;3.83;1.02;;;6.60;99.90;;;;;;5019644;28;20064;-82
2022/04/03 11:31:24;;;;;;;2.65;1.10;;;6.70;99.90;;;;;;5001346;28;20128;-83
2022/04/03 11:33:50;;;;;;;1.95;1.10;;;7.00;99.90;;;;;;5015991;28;20048;-83
2022/04/03 11:36:18;;;;;;;2.28;1.00;;;7.30;99.90;;;;;;5012656;28;20418;-83
2022/04/03 11:38:51;;;;;;;3.60;1.00;;;7.70;99.90;;;;;;5019026;28;20126;-83
2022/04/03 11:41:20;;;;;;;3.28;1.15;;;7.60;99.90;;;;;;4999427;28;20561;-83
2022/04/03 11:44:03;;;;;;;3.28;1.20;;;7.90;99.90;;;;;;5036269;28;20032;-83
2022/04/03 11:46:30;;;;;;;;;;;7.50;99.90;;;;;;5033275;28;20033;-82
2022/04/03 11:48:56;;;;;;;4.72;1.40;;;7.40;99.90;;;;;;5028442;28;19917;-82
2022/04/03 11:51:23;;;;;;;4.68;1.33;;;7.70;99.90;;;;;;5015117;28;20394;-83
2022/04/03 11:53:56;;;;;;;2.72;1.00;;;7.50;99.90;;;;;;5035036;28;20048;-83
2022/04/03 11:56:22;;;;;;;3.03;1.20;;;8.80;99.90;;;;;;5032780;28;20101;-83
2022/04/03 11:58:55;;;;;;;3.20;1.20;;;8.10;99.90;;;;;;5025529;28;20129;-83
2022/04/03 12:01:24;;;;;;;;;;;8.20;99.90;;;;;;5013916;28;20502;-83
2022/04/03 12:03:59;;;;;;;4.07;1.33;;;8.30;99.90;;;;;;5038068;28;20369;-84
2022/04/03 12:06:26;;;;;;;2.78;1.20;;;8.40;99.90;;;;;;5022210;28;20071;-84
2022/04/03 12:08:52;;;;;;;2.92;1.17;;;8.50;99.90;;;;;;5023006;28;21086;-83
2022/04/03 12:11:30;;;;;;;4.47;1.30;;;8.60;99.90;;;;;;5037083;28;20063;-83
2022/04/03 12:13:58;;;;;;;5.68;1.42;;;8.60;99.90;;;;;;5025137;28;20136;-84
2022/04/03 12:16:26;;;;;;;4.45;1.20;;;8.80;99.90;;;;;;5028892;28;20501;-83
2022/04/03 12:18:56;;;;;;;3.97;1.60;;;9.70;99.90;;;;;;5028951;28;20112;-83
2022/04/03 12:21:42;;;;;;;5.88;1.40;;;8.80;99.90;;;;;;5016355;28;20098;-85
2022/04/03 12:24:15;;;;;;;4.68;1.40;;;9.00;99.90;;;;;;4999242;28;20276;-84
2022/04/03 12:26:50;;;;;;;5.45;1.55;;;9.30;99.90;;;;;;5031096;28;20033;-83
2022/04/03 12:29:17;;;;;;;3.28;1.30;;;9.70;99.90;;;;;;5026695;28;20117;-83
2022/04/03 12:31:44;;;;;;;4.22;1.38;;;10.30;99.90;;;;;;5004957;28;20526;-84
2022/04/03 12:34:18;;;;;;;3.85;1.42;;;9.80;99.90;;;;;;5005957;28;20192;-83
2022/04/03 12:36:52;;;;;;;3.70;1.27;;;9.40;99.90;;;;;;5023881;28;20045;-84
2022/04/03 12:39:42;;;;;;;4.97;1.40;;;9.40;99.90;;;;;;5040230;28;20040;-83
2022/04/03 12:42:15;;;;;;;7.15;1.48;;;9.20;99.90;;;;;;5032785;28;20108;-83
2022/04/03 12:45:09;;;;;;;4.40;1.40;;;9.00;99.90;;;;;;5034611;28;20051;-83
2022/04/03 12:47:49;;;;;;;5.78;1.35;;;8.80;99.90;;;;;;5028401;28;20073;-82
2022/04/03 12:50:20;;;;;;;2.65;1.10;;;8.60;99.90;;;;;;5018042;28;20052;-83
2022/04/03 12:52:54;;;;;;;4.05;1.13;;;8.40;99.90;;;;;;5029390;28;20246;-83
2022/04/03 12:55:35;;;;;;;5.43;1.63;;;8.40;99.90;;;;;;5033542;28;20257;-82
2022/04/03 13:00:45;;;;;;;4.70;1.55;;;8.20;99.90;;;;;;5028351;28;20048;-83
2022/04/03 13:03:22;;;;;;;3.33;1.10;;;8.30;99.90;;;;;;5029290;28;20044;-83
2022/04/03 13:05:48;;;;;;;6.70;1.67;;;8.90;99.90;;;;;;5021784;28;20033;-83